Time;durP1;ratioP1;P1;durP2;ratioP2;P2;SDS_P1;SDS_P2;PMS_P1;PMS_P2;Temp;Humidity;BMP_temperature;BMP_pressure;BME280_temperature;BME280_humidity;BME280_pressure;Samples;Min_cycle;Max_cycle;Signal;HPM_P1;HPM_P2
2022/07/18 00:01:36;;;;;;;1.27;0.90;;;20.10;54.10;;;;;;5041352;28;20032;-50
2022/07/18 00:04:01;;;;;;;1.85;0.90;;;20.10;54.20;;;;;;5052299;28;20044;-53
2022/07/18 00:06:27;;;;;;;2.47;0.95;;;20.10;54.10;;;;;;5051580;28;20061;-50
2022/07/18 00:08:52;;;;;;;1.58;1.15;;;20.10;54.10;;;;;;5049929;28;20434;-53
2022/07/18 00:11:18;;;;;;;2.42;1.10;;;20.10;54.10;;;;;;5050527;28;20108;-52
2022/07/18 00:13:44;;;;;;;2.13;1.00;;;20.10;54.10;;;;;;5050717;28;20274;-49
2022/07/18 00:16:09;;;;;;;2.38;1.05;;;20.10;54.10;;;;;;5051189;28;20029;-55
2022/07/18 00:18:35;;;;;;;2.50;0.95;;;20.10;54.10;;;;;;5049982;28;20082;-52
2022/07/18 00:21:00;;;;;;;2.78;1.30;;;20.10;54.10;;;;;;5050112;28;20565;-51
2022/07/18 00:23:26;;;;;;;2.13;1.20;;;20.10;54.10;;;;;;5050485;28;20550;-53
2022/07/18 00:25:51;;;;;;;2.92;1.20;;;20.10;54.10;;;;;;5050168;28;20049;-54
2022/07/18 00:28:17;;;;;;;2.05;1.20;;;20.10;54.10;;;;;;5050234;28;20027;-52
2022/07/18 00:30:42;;;;;;;2.38;1.08;;;20.10;54.10;;;;;;5050540;28;20687;-53
2022/07/18 00:33:08;;;;;;;2.40;1.00;;;20.10;54.10;;;;;;5050226;28;20561;-53
2022/07/18 00:35:33;;;;;;;2.53;1.25;;;20.10;54.10;;;;;;5050122;28;20033;-51
2022/07/18 00:38:01;;;;;;;5.25;1.13;;;20.10;54.00;;;;;;5049844;28;20029;-52
2022/07/18 00:40:26;;;;;;;0.98;0.90;;;20.00;53.90;;;;;;5039053;28;20053;-50
2022/07/18 00:42:52;;;;;;;2.42;1.23;;;20.10;53.90;;;;;;5050030;28;20060;-52
2022/07/18 00:45:17;;;;;;;3.63;1.13;;;20.10;53.90;;;;;;5050294;28;20398;-53
2022/07/18 00:47:43;;;;;;;4.95;1.40;;;20.10;53.90;;;;;;5050991;28;20067;-50
2022/07/18 00:50:09;;;;;;;0.90;0.80;;;20.10;53.90;;;;;;5049897;28;20037;-50
2022/07/18 00:52:34;;;;;;;2.97;1.42;;;20.00;53.80;;;;;;5048898;28;20037;-48
2022/07/18 00:55:00;;;;;;;3.03;0.88;;;20.10;53.80;;;;;;5046767;28;20033;-49
2022/07/18 00:57:26;;;;;;;2.63;1.30;;;20.00;53.70;;;;;;5046356;28;20163;-51
2022/07/18 01:02:36;;;;;;;1.80;1.00;;;20.00;53.60;;;;;;5047236;28;20036;-50
2022/07/18 01:05:01;;;;;;;4.78;1.20;;;20.10;53.70;;;;;;5046563;28;20064;-49
2022/07/18 01:07:27;;;;;;;2.25;1.08;;;20.10;53.70;;;;;;5046268;28;20041;-49
2022/07/18 01:09:52;;;;;;;4.78;0.98;;;20.10;53.70;;;;;;5045720;28;20025;-48
2022/07/18 01:12:18;;;;;;;1.42;0.93;;;20.10;53.70;;;;;;5046437;28;20057;-50
2022/07/18 01:14:43;;;;;;;3.80;1.13;;;20.00;53.70;;;;;;5029749;28;20391;-48
2022/07/18 01:17:16;;;;;;;3.63;1.42;;;20.00;53.60;;;;;;5028137;28;20033;-48
2022/07/18 01:19:42;;;;;;;3.92;1.20;;;20.10;53.70;;;;;;5011088;28;20041;-49
2022/07/18 01:22:07;;;;;;;2.95;0.82;;;20.00;53.60;;;;;;5046123;28;20492;-48
2022/07/18 01:24:34;;;;;;;3.10;1.20;;;20.00;53.70;;;;;;5046529;28;20029;-49
2022/07/18 01:26:59;;;;;;;3.08;1.13;;;20.00;53.60;;;;;;5046068;28;20029;-49
2022/07/18 01:29:25;;;;;;;1.40;0.93;;;20.00;53.60;;;;;;5045673;28;20770;-50
2022/07/18 01:31:50;;;;;;;2.92;1.10;;;20.00;53.60;;;;;;5028308;28;20484;-50
2022/07/18 01:34:21;;;;;;;4.93;1.42;;;20.00;53.60;;;;;;5046500;28;20554;-48
2022/07/18 01:36:47;;;;;;;3.42;1.00;;;20.00;53.60;;;;;;5028545;28;20036;-47
2022/07/18 01:39:12;;;;;;;2.35;0.90;;;20.00;53.60;;;;;;5046022;28;20063;-48
2022/07/18 01:41:38;;;;;;;2.70;1.00;;;20.00;53.60;;;;;;5046140;28;20033;-50
2022/07/18 01:44:04;;;;;;;2.10;0.90;;;20.00;53.60;;;;;;5046056;28;20442;-48
2022/07/18 01:46:29;;;;;;;1.58;0.93;;;20.00;53.50;;;;;;5045727;28;20033;-49
2022/07/18 01:48:55;;;;;;;3.30;1.00;;;20.00;53.50;;;;;;5045243;28;20116;-49
2022/07/18 01:51:20;;;;;;;2.25;0.80;;;20.00;53.50;;;;;;5045838;28;20055;-51
2022/07/18 01:53:54;;;;;;;1.38;1.00;;;20.00;53.50;;;;;;5045946;28;20025;-53
2022/07/18 01:56:19;;;;;;;4.30;1.10;;;20.00;53.50;;;;;;5028429;28;20029;-49
2022/07/18 01:58:45;;;;;;;1.60;1.17;;;20.00;53.40;;;;;;5045685;28;20169;-48
2022/07/18 02:01:10;;;;;;;1.83;0.70;;;20.00;53.40;;;;;;5045085;28;23265;-49
2022/07/18 02:03:35;;;;;;;3.28;0.98;;;20.00;53.40;;;;;;5045621;28;20029;-51
2022/07/18 02:06:01;;;;;;;1.40;0.90;;;20.00;53.40;;;;;;5045165;28;20074;-49
2022/07/18 02:08:27;;;;;;;2.03;0.88;;;19.90;53.40;;;;;;5045016;28;20380;-52
2022/07/18 02:10:52;;;;;;;2.35;1.20;;;19.90;53.50;;;;;;5045927;28;20028;-54
2022/07/18 02:13:20;;;;;;;2.50;1.00;;;19.90;53.50;;;;;;5045303;28;20017;-54
2022/07/18 02:15:45;;;;;;;1.80;0.85;;;19.90;53.50;;;;;;5046069;28;20260;-46
2022/07/18 02:18:11;;;;;;;2.42;1.17;;;19.90;53.50;;;;;;5045083;28;20055;-49
2022/07/18 02:20:38;;;;;;;2.42;0.90;;;19.90;53.50;;;;;;5025508;28;20030;-48
2022/07/18 02:23:04;;;;;;;0.88;0.80;;;19.90;53.50;;;;;;5025495;28;20032;-47
2022/07/18 02:25:29;;;;;;;2.50;1.00;;;19.90;53.50;;;;;;5026153;28;20023;-50
2022/07/18 02:27:55;;;;;;;2.03;0.88;;;19.90;53.50;;;;;;5025616;28;20496;-52
2022/07/18 02:30:21;;;;;;;2.08;1.13;;;19.90;53.50;;;;;;5025244;28;20028;-48
2022/07/18 02:32:46;;;;;;;1.65;0.80;;;19.90;53.60;;;;;;5024419;28;20036;-54
2022/07/18 02:35:12;;;;;;;3.03;1.00;;;19.90;53.50;;;;;;5026235;28;20026;-55
2022/07/18 02:37:38;;;;;;;4.70;1.27;;;19.90;53.60;;;;;;5025479;28;20022;-54
2022/07/18 02:40:08;;;;;;;1.30;0.98;;;19.90;53.50;;;;;;5025028;28;20036;-53
2022/07/18 02:42:33;;;;;;;2.80;1.40;;;19.90;53.60;;;;;;5025638;28;20029;-49
2022/07/18 02:44:59;;;;;;;1.95;1.20;;;19.90;53.60;;;;;;5025562;28;20036;-50
2022/07/18 02:47:24;;;;;;;3.42;0.95;;;19.90;53.60;;;;;;5025518;28;20089;-51
2022/07/18 02:49:50;;;;;;;1.65;1.02;;;19.90;53.60;;;;;;5024847;28;20651;-48
2022/07/18 02:52:15;;;;;;;2.22;1.00;;;19.80;53.50;;;;;;5026015;28;20036;-50
2022/07/18 02:54:41;;;;;;;2.17;0.90;;;19.80;53.50;;;;;;5025865;28;20037;-50
2022/07/18 02:57:06;;;;;;;1.55;0.90;;;19.80;53.50;;;;;;5025143;28;20037;-48
2022/07/18 02:59:32;;;;;;;1.98;1.10;;;19.80;53.50;;;;;;5024163;28;20121;-49
2022/07/18 03:01:57;;;;;;;1.65;1.00;;;19.80;54.20;;;;;;5024054;28;20053;-46
2022/07/18 03:04:23;;;;;;;2.38;0.98;;;19.80;53.50;;;;;;5024714;28;20204;-50
2022/07/18 03:06:49;;;;;;;3.55;1.50;;;19.90;53.60;;;;;;5023916;28;20033;-50
2022/07/18 03:09:14;;;;;;;3.33;0.98;;;19.80;53.60;;;;;;5024734;28;20159;-48
2022/07/18 03:11:40;;;;;;;2.08;1.08;;;19.80;53.70;;;;;;5023653;28;20036;-47
2022/07/18 03:14:05;;;;;;;2.22;1.10;;;19.80;53.70;;;;;;5024394;28;20044;-49
2022/07/18 03:16:31;;;;;;;3.40;1.30;;;19.80;53.60;;;;;;5024582;28;20044;-49
2022/07/18 03:18:56;;;;;;;1.55;0.88;;;19.80;53.70;;;;;;5024046;28;20040;-48
2022/07/18 03:21:22;;;;;;;1.98;1.00;;;19.80;53.70;;;;;;5024519;28;20029;-52
2022/07/18 03:23:47;;;;;;;3.83;1.00;;;19.80;53.70;;;;;;5024082;28;20412;-48
2022/07/18 03:26:13;;;;;;;1.73;0.90;;;19.80;53.60;;;;;;5024356;28;20051;-48
2022/07/18 03:28:38;;;;;;;1.95;1.00;;;19.80;53.60;;;;;;5023066;28;20491;-49
2022/07/18 03:31:04;;;;;;;2.80;1.17;;;19.80;53.60;;;;;;5022320;28;20036;-48
2022/07/18 03:33:30;;;;;;;1.80;0.80;;;19.80;53.60;;;;;;5021645;28;20060;-48
2022/07/18 03:35:55;;;;;;;4.93;1.20;;;19.80;53.60;;;;;;5024529;28;20028;-48
2022/07/18 03:38:21;;;;;;;3.70;0.90;;;19.80;53.60;;;;;;5024438;28;20029;-50
2022/07/18 03:40:46;;;;;;;2.05;0.82;;;19.80;53.60;;;;;;5024068;28;20116;-48
2022/07/18 03:43:12;;;;;;;2.72;1.00;;;19.80;53.60;;;;;;5024573;28;20169;-49
2022/07/18 03:45:37;;;;;;;1.73;1.10;;;19.70;53.50;;;;;;5024688;28;20424;-48
2022/07/18 03:48:03;;;;;;;2.40;1.30;;;19.70;53.50;;;;;;5024348;28;20033;-49
2022/07/18 03:50:28;;;;;;;1.45;0.88;;;19.70;53.50;;;;;;5023970;28;20061;-50
2022/07/18 03:52:54;;;;;;;1.70;0.90;;;19.70;53.60;;;;;;5024419;28;20021;-49
2022/07/18 03:55:20;;;;;;;1.70;0.77;;;19.70;53.60;;;;;;5024325;28;20614;-48
2022/07/18 03:57:45;;;;;;;2.13;1.10;;;19.70;53.70;;;;;;5024804;28;20084;-47
2022/07/18 04:00:11;;;;;;;3.42;1.08;;;19.70;53.70;;;;;;5023795;28;20083;-49
2022/07/18 04:02:40;;;;;;;2.97;1.27;;;19.70;53.70;;;;;;5024477;28;20037;-51
2022/07/18 04:05:06;;;;;;;2.15;0.82;;;19.70;53.80;;;;;;5024328;28;20072;-48
2022/07/18 04:07:31;;;;;;;3.20;1.00;;;19.70;53.90;;;;;;5022164;28;20065;-48
2022/07/18 04:09:57;;;;;;;1.75;0.85;;;19.70;53.90;;;;;;5023242;28;20053;-51
2022/07/18 04:12:22;;;;;;;3.50;0.80;;;19.70;53.90;;;;;;5043530;28;20033;-48
2022/07/18 04:14:48;;;;;;;1.48;0.80;;;19.70;53.90;;;;;;5043693;28;20453;-51
2022/07/18 04:17:13;;;;;;;1.20;0.98;;;19.70;54.00;;;;;;5044178;28;20033;-52
2022/07/18 04:19:39;;;;;;;2.35;0.80;;;19.70;54.00;;;;;;5042412;28;20109;-48
2022/07/18 04:22:04;;;;;;;2.70;1.20;;;19.70;54.10;;;;;;5043768;28;20029;-50
2022/07/18 04:24:30;;;;;;;3.45;1.25;;;19.80;54.20;;;;;;5043579;28;20033;-49
2022/07/18 04:26:55;;;;;;;3.42;1.00;;;19.70;54.30;;;;;;5043448;28;20049;-49
2022/07/18 04:29:21;;;;;;;2.38;1.00;;;19.70;54.30;;;;;;5046920;28;20106;-48
2022/07/18 04:31:46;;;;;;;1.98;0.90;;;19.70;54.30;;;;;;5047611;28;20057;-44
2022/07/18 04:34:12;;;;;;;2.17;0.93;;;19.70;54.90;;;;;;5047827;28;20104;-49
2022/07/18 04:36:37;;;;;;;1.77;1.05;;;19.70;54.30;;;;;;5030053;28;20029;-49
2022/07/18 04:39:03;;;;;;;4.13;0.90;;;19.70;54.40;;;;;;5047090;28;20025;-51
2022/07/18 04:41:29;;;;;;;1.83;1.08;;;19.70;54.40;;;;;;5047228;28;20041;-54
2022/07/18 04:43:54;;;;;;;2.20;1.02;;;19.70;54.40;;;;;;5047788;28;20056;-51
2022/07/18 04:46:20;;;;;;;2.05;0.80;;;19.70;54.50;;;;;;5047591;28;20028;-55
2022/07/18 04:48:46;;;;;;;4.20;1.17;;;19.70;54.50;;;;;;5046781;28;20036;-51
2022/07/18 04:51:11;;;;;;;3.78;0.80;;;19.70;54.60;;;;;;5047216;28;20079;-50
2022/07/18 04:53:37;;;;;;;3.33;0.90;;;19.70;54.60;;;;;;5047883;28;20086;-51
2022/07/18 04:56:02;;;;;;;2.30;1.00;;;19.80;54.70;;;;;;5047337;28;20193;-50
2022/07/18 04:58:28;;;;;;;2.17;0.90;;;19.70;54.70;;;;;;5047048;28;20051;-49
2022/07/18 05:00:55;;;;;;;2.80;0.90;;;19.70;54.80;;;;;;5046843;28;20060;-54
2022/07/18 05:03:21;;;;;;;2.10;1.08;;;19.70;54.90;;;;;;5047021;28;20492;-48
2022/07/18 05:05:46;;;;;;;2.10;1.08;;;19.70;54.90;;;;;;5047592;28;20032;-48
2022/07/18 05:08:13;;;;;;;1.30;1.00;;;19.80;55.80;;;;;;5046402;28;20624;-50
2022/07/18 05:10:39;;;;;;;1.45;0.73;;;19.80;55.00;;;;;;5045886;28;20032;-49
2022/07/18 05:13:04;;;;;;;1.02;0.90;;;19.80;55.80;;;;;;5029120;28;20041;-48
2022/07/18 05:15:30;;;;;;;1.65;0.98;;;19.80;55.20;;;;;;5046596;28;20021;-50
2022/07/18 05:17:55;;;;;;;4.55;1.10;;;19.80;55.20;;;;;;5046324;28;20025;-47
2022/07/18 05:20:22;;;;;;;1.48;0.80;;;19.80;55.30;;;;;;5045842;28;20052;-48
2022/07/18 05:22:47;;;;;;;2.42;1.10;;;19.80;55.40;;;;;;5046622;28;20062;-48
2022/07/18 05:25:13;;;;;;;2.08;1.00;;;19.80;55.50;;;;;;5046606;28;20037;-49
2022/07/18 05:27:39;;;;;;;3.45;0.93;;;19.80;55.50;;;;;;5028445;28;20036;-50
2022/07/18 05:30:06;;;;;;;2.58;1.13;;;19.80;55.60;;;;;;5045540;28;20090;-49
2022/07/18 05:32:31;;;;;;;2.05;1.33;;;19.80;55.60;;;;;;5045776;28;20044;-47
2022/07/18 05:34:57;;;;;;;1.55;1.05;;;19.80;55.60;;;;;;5046175;28;20021;-51
2022/07/18 05:37:22;;;;;;;2.20;1.25;;;19.80;55.70;;;;;;5028589;28;20087;-50
2022/07/18 05:39:50;;;;;;;2.72;0.90;;;19.80;55.80;;;;;;5044677;28;20029;-50
2022/07/18 05:42:15;;;;;;;2.75;1.20;;;19.80;55.80;;;;;;5046484;28;20029;-52
2022/07/18 05:44:41;;;;;;;2.78;1.10;;;19.80;55.90;;;;;;5046225;28;20028;-48
2022/07/18 05:47:07;;;;;;;1.77;1.17;;;19.80;55.90;;;;;;5045556;28;20072;-48
2022/07/18 05:49:33;;;;;;;2.20;1.15;;;19.80;56.00;;;;;;5045604;28;20442;-48
2022/07/18 05:51:58;;;;;;;2.80;1.02;;;19.80;56.00;;;;;;5045274;28;20033;-51
2022/07/18 05:54:23;;;;;;;2.10;1.10;;;19.80;56.10;;;;;;5046067;28;20423;-53
2022/07/18 05:56:50;;;;;;;3.05;1.08;;;19.80;56.10;;;;;;5045898;28;20044;-50
2022/07/18 05:59:16;;;;;;;3.47;1.00;;;19.80;56.00;;;;;;5045799;28;20051;-53
2022/07/18 06:01:41;;;;;;;2.20;1.00;;;19.80;56.00;;;;;;5045760;28;20113;-51
2022/07/18 06:04:07;;;;;;;2.17;0.90;;;19.80;55.80;;;;;;5045922;28;20128;-50
2022/07/18 06:06:32;;;;;;;2.15;1.02;;;19.90;55.70;;;;;;5045383;28;20107;-51
2022/07/18 06:08:58;;;;;;;0.82;0.70;;;19.90;55.60;;;;;;5044766;28;20041;-55
2022/07/18 06:11:23;;;;;;;3.00;1.10;;;19.90;55.40;;;;;;5045232;28;20047;-52
2022/07/18 06:13:49;;;;;;;1.50;1.00;;;19.90;55.20;;;;;;5045688;28;20028;-51
2022/07/18 06:16:14;;;;;;;2.03;0.90;;;19.90;55.00;;;;;;5046099;28;20025;-55
2022/07/18 06:18:40;;;;;;;3.28;0.95;;;19.90;55.00;;;;;;5044913;28;20471;-54
2022/07/18 06:21:06;;;;;;;2.35;1.13;;;19.90;54.80;;;;;;5044938;28;20422;-51
2022/07/18 06:23:31;;;;;;;2.92;0.70;;;19.90;54.70;;;;;;5027476;28;20036;-52
2022/07/18 06:25:57;;;;;;;2.25;0.82;;;20.00;54.50;;;;;;5045101;28;20407;-55
2022/07/18 06:28:23;;;;;;;4.10;1.25;;;20.00;54.40;;;;;;5044977;28;20407;-48
2022/07/18 06:30:48;;;;;;;2.45;1.20;;;20.00;54.30;;;;;;5044926;28;20120;-50
2022/07/18 06:33:14;;;;;;;2.65;0.98;;;20.00;54.10;;;;;;5045456;28;20025;-52
2022/07/18 06:35:40;;;;;;;1.40;0.90;;;20.00;53.90;;;;;;5045179;28;20025;-54
2022/07/18 06:38:05;;;;;;;1.73;0.70;;;20.00;54.10;;;;;;5044664;28;20025;-53
2022/07/18 06:40:31;;;;;;;1.92;0.93;;;20.00;54.20;;;;;;5026687;28;20041;-50
2022/07/18 06:42:56;;;;;;;2.20;0.75;;;20.00;53.90;;;;;;5044830;28;20035;-54
2022/07/18 06:45:22;;;;;;;1.88;0.90;;;20.00;53.80;;;;;;5045208;28;20029;-55
2022/07/18 06:47:47;;;;;;;3.88;1.15;;;20.00;53.70;;;;;;5052725;22;20093;-63
2022/07/18 06:50:14;;;;;;;6.05;1.63;;;20.00;53.70;;;;;;5044607;28;20312;-64
2022/07/18 06:52:40;;;;;;;1.63;0.90;;;20.00;53.70;;;;;;5046098;28;20026;-64
2022/07/18 06:55:06;;;;;;;1.58;1.02;;;20.10;53.60;;;;;;5046557;28;20029;-64
2022/07/18 06:57:31;;;;;;;2.15;0.98;;;20.10;53.50;;;;;;5046464;28;20051;-64
2022/07/18 06:59:57;;;;;;;4.43;1.25;;;20.10;53.50;;;;;;5046092;28;20024;-64
2022/07/18 07:02:22;;;;;;;2.63;1.10;;;20.10;53.20;;;;;;5046495;28;20036;-64
2022/07/18 07:04:48;;;;;;;3.65;1.33;;;20.10;52.40;;;;;;5046363;28;20049;-63
2022/07/18 07:07:13;;;;;;;4.57;1.38;;;20.10;53.10;;;;;;5029073;28;20040;-64
2022/07/18 07:09:39;;;;;;;1.30;0.93;;;20.10;52.20;;;;;;5046029;28;20025;-64
2022/07/18 07:12:04;;;;;;;4.95;0.88;;;20.10;52.90;;;;;;5046475;28;20044;-64
2022/07/18 07:14:30;;;;;;;2.83;1.05;;;20.10;52.90;;;;;;5046313;28;20454;-63
2022/07/18 07:16:55;;;;;;;2.17;1.00;;;20.10;52.00;;;;;;5046040;28;20033;-64
2022/07/18 07:19:21;;;;;;;2.42;1.00;;;20.10;52.70;;;;;;5045825;28;20437;-64
2022/07/18 07:21:46;;;;;;;3.55;1.35;;;20.10;52.40;;;;;;5046803;28;20421;-64
2022/07/18 07:24:12;;;;;;;4.07;1.25;;;20.10;51.70;;;;;;5046111;28;20102;-64
2022/07/18 07:26:37;;;;;;;2.42;1.13;;;20.10;52.30;;;;;;5045970;28;20522;-64
2022/07/18 07:29:03;;;;;;;2.17;0.90;;;20.10;52.50;;;;;;5045579;28;20025;-64
2022/07/18 07:31:28;;;;;;;1.67;0.88;;;20.10;52.40;;;;;;5046071;28;20025;-64
2022/07/18 07:33:54;;;;;;;3.13;1.45;;;20.10;52.60;;;;;;5046246;28;20163;-63
2022/07/18 07:36:21;;;;;;;2.20;1.10;;;20.10;51.90;;;;;;5046055;28;20064;-63
2022/07/18 07:38:46;;;;;;;5.25;1.40;;;20.10;51.30;;;;;;5045677;28;20029;-64
2022/07/18 07:41:13;;;;;;;2.17;1.15;;;20.20;51.90;;;;;;5045941;28;20021;-64
2022/07/18 07:43:38;;;;;;;3.35;1.25;;;20.20;51.20;;;;;;5045727;28;20409;-64
2022/07/18 07:46:04;;;;;;;1.73;0.98;;;20.20;50.80;;;;;;5045524;28;20036;-64
2022/07/18 07:48:29;;;;;;;2.90;1.38;;;20.10;51.90;;;;;;5045198;28;20041;-63
2022/07/18 07:50:55;;;;;;;3.28;1.33;;;20.20;51.20;;;;;;5046194;28;20635;-64
2022/07/18 07:53:21;;;;;;;4.80;1.63;;;20.20;49.50;;;;;;5045908;28;20045;-64
2022/07/18 07:55:46;;;;;;;3.88;1.00;;;20.20;49.90;;;;;;5046344;28;20108;-64
2022/07/18 07:58:12;;;;;;;2.30;1.33;;;20.20;50.30;;;;;;5045569;28;20026;-63
2022/07/18 08:00:37;;;;;;;2.75;1.05;;;20.30;50.00;;;;;;5045410;28;20520;-63
2022/07/18 08:03:04;;;;;;;2.28;1.15;;;20.20;50.20;;;;;;5047696;28;20100;-63
2022/07/18 08:05:32;;;;;;;5.50;1.33;;;20.30;50.00;;;;;;5049879;28;20026;-63
2022/07/18 08:07:58;;;;;;;1.52;1.15;;;20.20;49.90;;;;;;5049618;28;20174;-64
2022/07/18 08:10:24;;;;;;;2.00;1.20;;;20.30;48.90;;;;;;5050028;28;20460;-63
2022/07/18 08:12:49;;;;;;;2.67;0.98;;;20.30;49.70;;;;;;5053757;28;20025;-64
2022/07/18 08:15:15;;;;;;;2.42;1.00;;;20.30;49.70;;;;;;5050085;28;20052;-64
2022/07/18 08:17:40;;;;;;;6.72;1.10;;;20.30;50.30;;;;;;5049533;28;20025;-64
2022/07/18 08:20:06;;;;;;;4.78;1.08;;;20.30;49.60;;;;;;5049344;28;20029;-64
2022/07/18 08:22:32;;;;;;;5.65;1.40;;;20.30;49.30;;;;;;5049686;28;20033;-64
2022/07/18 08:24:57;;;;;;;5.05;1.40;;;20.30;49.50;;;;;;5049506;28;20025;-64
2022/07/18 08:27:23;;;;;;;4.95;1.45;;;20.30;48.70;;;;;;5049301;28;20036;-64
2022/07/18 08:29:48;;;;;;;5.28;1.23;;;20.30;48.50;;;;;;5043203;28;20381;-64
2022/07/18 08:32:14;;;;;;;2.88;1.30;;;20.40;48.30;;;;;;5050029;28;20032;-64
2022/07/18 08:34:39;;;;;;;5.40;1.50;;;20.40;47.80;;;;;;5049816;28;20029;-64
2022/07/18 08:37:05;;;;;;;2.92;1.17;;;20.40;48.00;;;;;;5049165;28;20401;-64
2022/07/18 08:39:30;;;;;;;5.18;1.67;;;20.40;48.00;;;;;;5048985;28;20044;-64
2022/07/18 08:41:56;;;;;;;2.47;1.10;;;20.40;47.80;;;;;;5049512;28;20033;-64
2022/07/18 08:44:21;;;;;;;2.13;1.20;;;20.40;47.60;;;;;;5031775;28;20509;-64
2022/07/18 08:46:49;;;;;;;2.78;1.27;;;20.40;48.50;;;;;;5016911;28;20083;-64
2022/07/18 08:49:15;;;;;;;3.30;1.08;;;20.40;48.60;;;;;;5042999;28;20040;-64
2022/07/18 08:51:40;;;;;;;5.32;1.40;;;20.40;49.60;;;;;;5011857;28;20390;-64
2022/07/18 08:54:06;;;;;;;5.72;1.40;;;20.40;47.40;;;;;;4995767;28;20038;-64
2022/07/18 08:56:31;;;;;;;2.05;1.00;;;20.40;47.70;;;;;;5026338;28;20026;-65
2022/07/18 08:58:57;;;;;;;3.20;1.13;;;20.40;50.00;;;;;;5030789;28;20075;-64
2022/07/18 09:01:22;;;;;;;5.90;1.73;;;20.30;49.00;;;;;;5041050;28;20033;-64
2022/07/18 09:04:14;;;;;;;5.18;1.48;;;20.30;47.80;;;;;;5048414;28;20045;-64
2022/07/18 09:06:46;;;;;;;6.25;1.30;;;20.40;48.00;;;;;;5048699;28;20124;-64
2022/07/18 09:09:13;;;;;;;2.80;1.33;;;20.50;47.60;;;;;;5030969;28;20041;-63
2022/07/18 09:11:55;;;;;;;2.78;0.90;;;20.40;48.20;;;;;;5049010;28;20229;-64
2022/07/18 09:14:38;;;;;;;3.13;1.40;;;20.40;47.40;;;;;;5038025;28;20036;-64
2022/07/18 09:17:10;;;;;;;6.10;1.35;;;20.40;47.30;;;;;;5048635;28;20090;-64
2022/07/18 09:19:36;;;;;;;2.03;1.15;;;20.50;47.90;;;;;;5048402;28;20443;-64
2022/07/18 09:22:18;;;;;;;4.25;1.30;;;20.40;48.00;;;;;;5048636;28;20517;-64
2022/07/18 09:24:57;;;;;;;2.50;1.08;;;20.40;47.90;;;;;;5049289;28;20039;-64
2022/07/18 09:27:29;;;;;;;2.75;1.40;;;20.50;47.40;;;;;;5048694;28;20059;-64
2022/07/18 09:30:21;;;;;;;1.50;0.85;;;20.50;47.60;;;;;;5032226;28;20044;-64
2022/07/18 09:33:03;;;;;;;2.70;1.23;;;20.50;46.50;;;;;;5019283;28;20034;-64
2022/07/18 09:35:49;;;;;;;2.50;0.90;;;20.50;47.40;;;;;;5016262;28;20033;-62
2022/07/18 09:38:16;;;;;;;4.03;1.27;;;20.40;48.20;;;;;;5051626;28;20029;-63
2022/07/18 09:40:45;;;;;;;3.10;1.10;;;20.50;47.80;;;;;;5048961;28;20397;-63
2022/07/18 09:43:16;;;;;;;3.38;1.13;;;20.50;48.10;;;;;;5048158;28;20033;-63
2022/07/18 09:45:49;;;;;;;2.88;1.30;;;20.40;48.40;;;;;;5048978;28;20036;-62
2022/07/18 09:48:19;;;;;;;5.65;1.20;;;20.40;48.40;;;;;;5048319;28;20045;-63
2022/07/18 09:51:12;;;;;;;2.75;1.00;;;20.40;48.00;;;;;;5047589;28;20029;-63
2022/07/18 09:53:41;;;;;;;7.40;1.60;;;20.50;48.80;;;;;;5047725;28;20450;-63
2022/07/18 09:56:28;;;;;;;3.95;1.75;;;20.50;48.20;;;;;;5048045;28;20549;-63
2022/07/18 09:58:55;;;;;;;2.30;1.52;;;20.50;47.20;;;;;;5028930;28;22461;-63
2022/07/18 10:01:20;;;;;;;4.05;1.17;;;20.60;47.20;;;;;;5047793;28;20067;-63
2022/07/18 10:03:48;;;;;;;2.92;1.10;;;20.50;47.50;;;;;;5046858;28;20097;-63
2022/07/18 10:06:14;;;;;;;2.55;1.10;;;20.50;47.20;;;;;;5047910;28;20037;-63
2022/07/18 10:08:39;;;;;;;3.72;1.20;;;20.50;48.00;;;;;;5029385;28;20035;-63
2022/07/18 10:11:06;;;;;;;4.35;1.88;;;20.60;47.50;;;;;;5047296;28;20029;-63
2022/07/18 10:13:32;;;;;;;7.05;1.27;;;20.60;47.40;;;;;;5047550;28;20029;-63
2022/07/18 10:15:58;;;;;;;4.68;1.17;;;20.60;48.30;;;;;;5047938;28;20112;-63
2022/07/18 10:18:25;;;;;;;9.57;1.83;;;20.60;47.20;;;;;;5046782;28;20112;-62
2022/07/18 10:21:02;;;;;;;5.05;1.27;;;20.60;47.50;;;;;;5047401;28;20028;-62
2022/07/18 10:23:44;;;;;;;3.70;1.88;;;20.70;47.30;;;;;;5045426;28;20497;-62
2022/07/18 10:26:22;;;;;;;3.33;1.30;;;20.60;46.90;;;;;;5046391;28;20032;-62
2022/07/18 10:28:56;;;;;;;3.28;1.25;;;20.60;46.60;;;;;;5027638;28;20029;-62
2022/07/18 10:31:38;;;;;;;5.45;1.30;;;20.70;46.60;;;;;;5027164;28;20022;-62
2022/07/18 10:34:06;;;;;;;2.50;0.90;;;20.70;46.80;;;;;;5048089;28;20474;-63
2022/07/18 10:36:33;;;;;;;5.95;1.42;;;20.70;46.90;;;;;;5047859;28;20032;-62
2022/07/18 10:39:23;;;;;;;5.53;1.85;;;20.80;47.10;;;;;;5048055;28;20032;-63
2022/07/18 10:41:52;;;;;;;2.67;1.33;;;20.80;46.90;;;;;;5048442;28;20033;-61
2022/07/18 10:44:26;;;;;;;5.35;1.33;;;20.80;46.70;;;;;;5048473;28;20082;-62
2022/07/18 10:47:17;;;;;;;2.17;1.45;;;20.90;46.90;;;;;;5047777;28;20606;-62
2022/07/18 10:49:52;;;;;;;5.53;1.40;;;20.90;46.70;;;;;;5048096;28;20448;-62
2022/07/18 10:52:26;;;;;;;2.75;1.30;;;20.90;46.40;;;;;;5049395;28;20067;-62
2022/07/18 10:55:16;;;;;;;3.97;1.58;;;20.90;47.50;;;;;;5049360;28;20082;-62
2022/07/18 10:58:01;;;;;;;2.30;1.48;;;20.80;47.40;;;;;;5047876;28;20519;-62
2022/07/18 11:00:28;;;;;;;;;;;20.80;46.40;;;;;;5047483;28;20570;-62
2022/07/18 11:03:00;;;;;;;5.05;1.33;;;20.80;46.40;;;;;;5047313;28;20472;-62
2022/07/18 11:05:25;;;;;;;3.40;1.30;;;20.80;46.20;;;;;;5047926;28;20146;-62
2022/07/18 11:08:13;;;;;;;3.47;1.70;;;20.80;45.90;;;;;;5047553;28;20482;-62
2022/07/18 11:10:46;;;;;;;3.22;1.58;;;20.90;46.30;;;;;;5035937;28;20062;-62
2022/07/18 11:13:30;;;;;;;3.95;1.42;;;20.90;46.40;;;;;;5051862;28;20029;-62
2022/07/18 11:16:14;;;;;;;5.53;1.05;;;20.90;46.20;;;;;;5046976;28;20025;-62
2022/07/18 11:18:43;;;;;;;1.90;1.17;;;21.00;46.20;;;;;;5047166;28;20064;-62
2022/07/18 11:21:14;;;;;;;7.40;1.40;;;21.00;46.20;;;;;;5046847;28;20563;-62
2022/07/18 11:23:42;;;;;;;2.33;1.10;;;21.00;46.20;;;;;;5046085;28;20041;-62
2022/07/18 11:26:09;;;;;;;2.90;1.27;;;21.00;45.90;;;;;;5046299;28;20048;-62
2022/07/18 11:28:35;;;;;;;3.03;1.42;;;21.00;46.00;;;;;;5007996;28;20068;-62
2022/07/18 11:31:08;;;;;;;2.00;1.15;;;21.10;45.80;;;;;;4976394;28;20037;-62
2022/07/18 11:33:35;;;;;;;2.03;1.30;;;21.10;46.10;;;;;;5018866;28;20037;-62
2022/07/18 11:36:12;;;;;;;2.28;1.25;;;21.20;46.30;;;;;;5046245;28;20055;-63
2022/07/18 11:38:58;;;;;;;5.72;1.50;;;21.20;46.00;;;;;;5044479;28;20043;-62
2022/07/18 11:41:24;;;;;;;3.30;1.25;;;21.20;46.20;;;;;;5045111;28;20037;-62
2022/07/18 11:43:50;;;;;;;3.25;1.33;;;21.20;46.40;;;;;;5046538;28;20029;-62
2022/07/18 11:46:17;;;;;;;3.08;1.33;;;21.20;46.00;;;;;;5046180;28;20102;-62
2022/07/18 11:48:47;;;;;;;5.03;1.63;;;21.20;45.70;;;;;;5045405;28;20044;-62
2022/07/18 11:51:17;;;;;;;4.38;1.48;;;21.30;45.70;;;;;;5046287;28;20041;-62
2022/07/18 11:53:50;;;;;;;2.42;1.02;;;21.20;46.40;;;;;;5045993;28;20717;-62
2022/07/18 11:56:16;;;;;;;1.98;1.40;;;21.20;46.80;;;;;;5045709;28;20025;-62
2022/07/18 11:58:42;;;;;;;1.42;1.10;;;21.20;46.10;;;;;;5045510;28;20555;-62
2022/07/18 12:01:08;;;;;;;2.08;1.50;;;21.20;46.90;;;;;;5046153;28;20025;-62
2022/07/18 12:03:39;;;;;;;4.80;1.58;;;21.10;46.80;;;;;;5046193;28;20029;-62
2022/07/18 12:06:15;;;;;;;2.25;1.35;;;21.10;45.80;;;;;;5045912;28;20044;-62
2022/07/18 12:08:41;;;;;;;2.42;1.20;;;21.20;45.40;;;;;;5045336;28;20044;-62
2022/07/18 12:11:14;;;;;;;3.55;1.08;;;21.20;45.50;;;;;;5046044;28;20060;-62
2022/07/18 12:13:49;;;;;;;3.05;1.40;;;21.20;46.00;;;;;;5046008;28;20053;-62
2022/07/18 12:16:26;;;;;;;3.08;1.00;;;21.20;45.70;;;;;;5045952;28;20044;-62
2022/07/18 12:18:53;;;;;;;2.10;1.10;;;21.20;46.30;;;;;;5045417;28;20110;-62
2022/07/18 12:21:18;;;;;;;2.95;1.15;;;21.20;44.90;;;;;;5046404;28;20029;-62
2022/07/18 12:23:44;;;;;;;2.88;1.42;;;21.20;44.30;;;;;;5046030;28;20025;-62
2022/07/18 12:26:25;;;;;;;2.67;1.33;;;21.30;44.10;;;;;;5045487;28;20104;-62
2022/07/18 12:29:03;;;;;;;3.03;1.55;;;21.30;44.20;;;;;;5029289;28;21233;-62
2022/07/18 12:31:45;;;;;;;2.08;1.20;;;21.30;45.30;;;;;;5045983;28;20124;-62
2022/07/18 12:34:16;;;;;;;2.95;1.20;;;21.30;44.30;;;;;;5045645;28;20037;-62
2022/07/18 12:36:56;;;;;;;3.65;1.50;;;21.30;43.60;;;;;;5045419;28;20509;-62
2022/07/18 12:39:32;;;;;;;4.93;1.33;;;21.30;44.20;;;;;;5045313;28;20033;-62
2022/07/18 12:41:58;;;;;;;5.43;1.52;;;21.40;43.70;;;;;;5046062;28;20577;-62
2022/07/18 12:44:25;;;;;;;4.20;1.58;;;21.40;43.60;;;;;;5045904;28;20029;-62
2022/07/18 12:46:50;;;;;;;2.15;1.30;;;21.50;43.30;;;;;;5028419;28;20635;-62
2022/07/18 12:49:16;;;;;;;1.67;1.10;;;21.50;43.80;;;;;;5047089;28;20041;-62
2022/07/18 12:51:41;;;;;;;2.42;1.30;;;21.50;43.80;;;;;;5049291;28;20091;-62
2022/07/18 12:54:07;;;;;;;2.35;0.90;;;21.50;43.40;;;;;;5049186;28;20029;-62